Freedom of the Seas — C6UZ7 — position and weather

sailwx.info

Track history (hours):
 
Tides and Currents Weather Stations Pressure Air Temp Water Temp Dewpoint Dewpoint Depression Visibility Wind Speed Wind Dir Waves Ship Positions

Freedom of the Seas

Last reported at 2019-Oct-18 06:00 UTC. Time now 2019-Oct-18 23:27 UTC.
Position N 13°18' W 060°18'.

Length 339 m; draft 9 m.

Type: Ship. MMSI: 309906000.

Wind from 150 at 15 knots

Barometer 1014.0 mb
Air temperature 28.0 ° C
Visibility: greater than 10.8 NM

Date/timePositionNaut miles runAvg speedWind from/ knotsBaromVisibWave heightAir tempDewpointWater temp
2019-Oct-18 06:00N 13°18' W 060°18'69 3.5 150 / 151014.010.8 28.0
2019-Oct-17 10:33N 14°08' W 061°07'110.9
2019-Oct-17 10:30N 14°08' W 061°07'611.1
2019-Oct-17 10:00N 14°12' W 061°11'811.4
2019-Oct-17 09:18N 14°18' W 061°17'1211.9
2019-Oct-17 08:16N 14°29' W 061°22'1312.1
2019-Oct-17 07:13N 14°41' W 061°28'4133.5
2019-Oct-17 06:00N 14°00' W 061°30'170 7.1 060 / 191014.010.8
2019-Oct-16 06:00N 16°42' W 062°24'162 5.3 100 / 81014.010.8 28.0
2019-Oct-14 23:25N 18°11' W 064°46'512.0
2019-Oct-14 23:00N 18°12' W 064°51'612.1
2019-Oct-14 22:30N 18°15' W 064°56'4 9.0
2019-Oct-14 22:00N 18°19' W 064°58'2 2.1
2019-Oct-14 21:13N 18°20' W 064°57'0 0.0
2019-Oct-14 20:55N 18°20' W 064°57'0 0.0
2019-Oct-14 20:25N 18°20' W 064°57'0 0.0
2019-Oct-14 19:55N 18°20' W 064°57'0 0.0
2019-Oct-14 19:19N 18°20' W 064°57'0 0.0
2019-Oct-14 18:55N 18°20' W 064°57'0 0.0
2019-Oct-14 18:19N 18°20' W 064°57'0 0.0
2019-Oct-14 17:55N 18°20' W 064°57'0 0.0
2019-Oct-14 17:25N 18°20' W 064°57'0 0.0
2019-Oct-14 16:55N 18°20' W 064°57'0 0.0
2019-Oct-14 16:25N 18°20' W 064°57'0 0.0
2019-Oct-14 15:49N 18°20' W 064°57'0 0.0
2019-Oct-14 15:19N 18°20' W 064°57'0 0.0
2019-Oct-14 14:43N 18°20' W 064°57'0 0.0
2019-Oct-14 14:25N 18°20' W 064°57'0 0.0
2019-Oct-14 13:49N 18°20' W 064°57'0 0.0
2019-Oct-14 13:16N 18°20' W 064°57'0 0.0
2019-Oct-14 12:55N 18°20' W 064°57'0 0.0
2019-Oct-14 12:19N 18°20' W 064°57'0 0.1
2019-Oct-14 11:53N 18°20' W 064°57'1 2.4
2019-Oct-14 11:30N 18°19' W 064°58'4 8.4
2019-Oct-14 11:00N 18°17' W 065°02'4 8.7
2019-Oct-14 10:30N 18°18' W 065°06'4 7.8
2019-Oct-14 10:00N 18°21' W 065°08'4 7.1
2019-Oct-14 09:30N 18°24' W 065°11'4 7.4
2019-Oct-14 09:00N 18°27' W 065°13'4 7.5
2019-Oct-14 08:30N 18°30' W 065°15'4 7.8
2019-Oct-14 08:00N 18°33' W 065°18'4 8.1
2019-Oct-14 07:30N 18°36' W 065°20'4 7.8
2019-Oct-14 07:00N 18°37' W 065°24'4 7.6
2019-Oct-14 06:30N 18°38' W 065°28'4 7.8
2019-Oct-14 06:00N 18°39' W 065°32'4307.9
2019-Oct-14 06:00N 18°36' W 065°30'714.8 080 / 91015.010.8 29.0
2019-Oct-14 05:30N 18°40' W 065°36'4 7.7
2019-Oct-14 05:00N 18°41' W 065°40'4 7.7
2019-Oct-14 04:30N 18°41' W 065°44'20 7.5
2019-Oct-14 01:46N 18°38' W 066°06'4 9.7
2019-Oct-14 01:22N 18°34' W 066°07'4 9.7
2019-Oct-14 01:00N 18°31' W 066°07'3 6.3
2019-Oct-14 00:30N 18°28' W 066°06'0 0.6
2019-Oct-13 23:59N 18°28' W 066°06'0 0.0
2019-Oct-13 23:29N 18°28' W 066°06'0 0.0
2019-Oct-13 22:59N 18°28' W 066°06'0 0.0
2019-Oct-13 22:29N 18°28' W 066°06'0 0.0
2019-Oct-13 21:59N 18°28' W 066°06'0 0.0
2019-Oct-13 21:29N 18°28' W 066°06'0 0.0
2019-Oct-13 20:59N 18°28' W 066°06'0 0.0
2019-Oct-13 20:29N 18°28' W 066°06'0 0.0
2019-Oct-13 19:59N 18°28' W 066°06'0 0.0
2019-Oct-13 19:26N 18°28' W 066°06'0 0.0
2019-Oct-13 18:59N 18°28' W 066°06'0 0.0
2019-Oct-13 18:29N 18°28' W 066°06'0 0.0
2019-Oct-13 17:56N 18°28' W 066°06'0 0.0
2019-Oct-13 17:29N 18°28' W 066°06'0 0.0
2019-Oct-13 16:59N 18°28' W 066°06'0 0.0
2019-Oct-13 16:29N 18°28' W 066°06'0 0.0
2019-Oct-13 15:59N 18°28' W 066°06'0 0.0
2019-Oct-13 15:29N 18°28' W 066°06'0 0.0
2019-Oct-13 14:59N 18°28' W 066°06'0 0.0
2019-Oct-13 14:29N 18°28' W 066°06'0 0.0
2019-Oct-13 13:59N 18°28' W 066°06'0 0.0
2019-Oct-13 13:29N 18°28' W 066°06'0 0.0
2019-Oct-13 12:53N 18°28' W 066°06'0 0.0
2019-Oct-13 12:29N 18°28' W 066°06'0 0.0
2019-Oct-13 11:59N 18°28' W 066°06'0 0.0
2019-Oct-13 11:29N 18°28' W 066°06'0 0.0
2019-Oct-13 10:59N 18°28' W 066°06'0 0.0
2019-Oct-13 10:29N 18°28' W 066°06'0 0.0
2019-Oct-13 09:59N 18°28' W 066°06'0 0.0
2019-Oct-13 09:29N 18°28' W 066°06'1 2.8
2019-Oct-13 09:00N 18°28' W 066°07'510.0
2019-Oct-13 08:31N 18°32' W 066°05'910.6
2019-Oct-13 07:41N 18°33' W 065°56'1515.0
2019-Oct-13 06:39N 18°32' W 065°40'316.8
2019-Oct-13 06:28N 18°31' W 065°37'816.9
2019-Oct-13 06:00N 18°30' W 065°28'817.0
2019-Oct-13 05:30N 18°28' W 065°20'917.1
2019-Oct-13 05:00N 18°22' W 065°13'816.9
2019-Oct-13 04:30N 18°16' W 065°07'917.2
2019-Oct-13 04:00N 18°14' W 064°58'917.5
2019-Oct-13 03:30N 18°12' W 064°49'  
Track history (hours):
 
Tides and Currents Weather Stations Pressure Air Temp Water Temp Dewpoint Dewpoint Depression Visibility Wind Speed Wind Dir Waves Ship Positions

Freedom of the Seas

Last reported at 2019-Oct-18 06:00 UTC. Time now 2019-Oct-18 23:27 UTC.
Position N 13°18' W 060°18'.

Length 339 m; draft 9 m.

Type: Ship. MMSI: 309906000.

Wind from 150 at 15 knots

Barometer 1014.0 mb
Air temperature 28.0 ° C
Visibility: greater than 10.8 NM

Date/timePositionNaut miles runAvg speedWind from/ knotsBaromVisibWave heightAir tempDewpointWater temp
2019-Oct-18 06:00N 13°18' W 060°18'69 3.5 150 / 151014.010.8 28.0
2019-Oct-17 10:33N 14°08' W 061°07'110.9
2019-Oct-17 10:30N 14°08' W 061°07'611.1
2019-Oct-17 10:00N 14°12' W 061°11'811.4
2019-Oct-17 09:18N 14°18' W 061°17'1211.9
2019-Oct-17 08:16N 14°29' W 061°22'1312.1
2019-Oct-17 07:13N 14°41' W 061°28'4133.5
2019-Oct-17 06:00N 14°00' W 061°30'170 7.1 060 / 191014.010.8
2019-Oct-16 06:00N 16°42' W 062°24'162 5.3 100 / 81014.010.8 28.0
2019-Oct-14 23:25N 18°11' W 064°46'512.0
2019-Oct-14 23:00N 18°12' W 064°51'612.1
2019-Oct-14 22:30N 18°15' W 064°56'4 9.0
2019-Oct-14 22:00N 18°19' W 064°58'2 2.1
2019-Oct-14 21:13N 18°20' W 064°57'0 0.0
2019-Oct-14 20:55N 18°20' W 064°57'0 0.0
2019-Oct-14 20:25N 18°20' W 064°57'0 0.0
2019-Oct-14 19:55N 18°20' W 064°57'0 0.0
2019-Oct-14 19:19N 18°20' W 064°57'0 0.0
2019-Oct-14 18:55N 18°20' W 064°57'0 0.0
2019-Oct-14 18:19N 18°20' W 064°57'0 0.0
2019-Oct-14 17:55N 18°20' W 064°57'0 0.0
2019-Oct-14 17:25N 18°20' W 064°57'0 0.0
2019-Oct-14 16:55N 18°20' W 064°57'0 0.0
2019-Oct-14 16:25N 18°20' W 064°57'0 0.0
2019-Oct-14 15:49N 18°20' W 064°57'0 0.0
2019-Oct-14 15:19N 18°20' W 064°57'0 0.0
2019-Oct-14 14:43N 18°20' W 064°57'0 0.0
2019-Oct-14 14:25N 18°20' W 064°57'0 0.0
2019-Oct-14 13:49N 18°20' W 064°57'0 0.0
2019-Oct-14 13:16N 18°20' W 064°57'0 0.0
2019-Oct-14 12:55N 18°20' W 064°57'0 0.0
2019-Oct-14 12:19N 18°20' W 064°57'0 0.1
2019-Oct-14 11:53N 18°20' W 064°57'1 2.4
2019-Oct-14 11:30N 18°19' W 064°58'4 8.4
2019-Oct-14 11:00N 18°17' W 065°02'4 8.7
2019-Oct-14 10:30N 18°18' W 065°06'4 7.8
2019-Oct-14 10:00N 18°21' W 065°08'4 7.1
2019-Oct-14 09:30N 18°24' W 065°11'4 7.4
2019-Oct-14 09:00N 18°27' W 065°13'4 7.5
2019-Oct-14 08:30N 18°30' W 065°15'4 7.8
2019-Oct-14 08:00N 18°33' W 065°18'4 8.1
2019-Oct-14 07:30N 18°36' W 065°20'4 7.8
2019-Oct-14 07:00N 18°37' W 065°24'4 7.6
2019-Oct-14 06:30N 18°38' W 065°28'4 7.8
2019-Oct-14 06:00N 18°39' W 065°32'4307.9
2019-Oct-14 06:00N 18°36' W 065°30'714.8 080 / 91015.010.8 29.0
2019-Oct-14 05:30N 18°40' W 065°36'4 7.7
2019-Oct-14 05:00N 18°41' W 065°40'4 7.7
2019-Oct-14 04:30N 18°41' W 065°44'20 7.5
2019-Oct-14 01:46N 18°38' W 066°06'4 9.7
2019-Oct-14 01:22N 18°34' W 066°07'4 9.7
2019-Oct-14 01:00N 18°31' W 066°07'3 6.3
2019-Oct-14 00:30N 18°28' W 066°06'0 0.6
2019-Oct-13 23:59N 18°28' W 066°06'0 0.0
2019-Oct-13 23:29N 18°28' W 066°06'0 0.0
2019-Oct-13 22:59N 18°28' W 066°06'0 0.0
2019-Oct-13 22:29N 18°28' W 066°06'0 0.0
2019-Oct-13 21:59N 18°28' W 066°06'0 0.0
2019-Oct-13 21:29N 18°28' W 066°06'0 0.0
2019-Oct-13 20:59N 18°28' W 066°06'0 0.0
2019-Oct-13 20:29N 18°28' W 066°06'0 0.0
2019-Oct-13 19:59N 18°28' W 066°06'0 0.0
2019-Oct-13 19:26N 18°28' W 066°06'0 0.0
2019-Oct-13 18:59N 18°28' W 066°06'0 0.0
2019-Oct-13 18:29N 18°28' W 066°06'0 0.0
2019-Oct-13 17:56N 18°28' W 066°06'0 0.0
2019-Oct-13 17:29N 18°28' W 066°06'0 0.0
2019-Oct-13 16:59N 18°28' W 066°06'0 0.0
2019-Oct-13 16:29N 18°28' W 066°06'0 0.0
2019-Oct-13 15:59N 18°28' W 066°06'0 0.0
2019-Oct-13 15:29N 18°28' W 066°06'0 0.0
2019-Oct-13 14:59N 18°28' W 066°06'0 0.0
2019-Oct-13 14:29N 18°28' W 066°06'0 0.0
2019-Oct-13 13:59N 18°28' W 066°06'0 0.0
2019-Oct-13 13:29N 18°28' W 066°06'0 0.0
2019-Oct-13 12:53N 18°28' W 066°06'0 0.0
2019-Oct-13 12:29N 18°28' W 066°06'0 0.0
2019-Oct-13 11:59N 18°28' W 066°06'0 0.0
2019-Oct-13 11:29N 18°28' W 066°06'0 0.0
2019-Oct-13 10:59N 18°28' W 066°06'0 0.0
2019-Oct-13 10:29N 18°28' W 066°06'0 0.0
2019-Oct-13 09:59N 18°28' W 066°06'0 0.0
2019-Oct-13 09:29N 18°28' W 066°06'1 2.8
2019-Oct-13 09:00N 18°28' W 066°07'510.0
2019-Oct-13 08:31N 18°32' W 066°05'910.6
2019-Oct-13 07:41N 18°33' W 065°56'1515.0
2019-Oct-13 06:39N 18°32' W 065°40'316.8
2019-Oct-13 06:28N 18°31' W 065°37'816.9
2019-Oct-13 06:00N 18°30' W 065°28'817.0
2019-Oct-13 05:30N 18°28' W 065°20'917.1
2019-Oct-13 05:00N 18°22' W 065°13'816.9
2019-Oct-13 04:30N 18°16' W 065°07'917.2
2019-Oct-13 04:00N 18°14' W 064°58'917.5
2019-Oct-13 03:30N 18°12' W 064°49'  

Dump ship's entire track history